sensor_id;sensor_type;location;lat;lon;timestamp;P1;durP1;ratioP1;P2;durP2;ratioP2
69981;SDS011;57319;56.274;43.980;2022-09-09T00:00:43;2.45;;;2.22;;
69981;SDS011;57319;56.274;43.980;2022-09-09T00:03:17;2.17;;;2.08;;
69981;SDS011;57319;56.274;43.980;2022-09-09T00:05:53;1.90;;;1.90;;
69981;SDS011;57319;56.274;43.980;2022-09-09T00:08:29;2.13;;;2.05;;
69981;SDS011;57319;56.274;43.980;2022-09-09T00:11:04;2.05;;;1.90;;
69981;SDS011;57319;56.274;43.980;2022-09-09T00:13:50;2.58;;;2.03;;
69981;SDS011;57319;56.274;43.980;2022-09-09T00:16:24;1.88;;;1.85;;
69981;SDS011;57319;56.274;43.980;2022-09-09T00:21:37;1.75;;;1.75;;
69981;SDS011;57319;56.274;43.980;2022-09-09T00:24:11;4.18;;;2.13;;
69981;SDS011;57319;56.274;43.980;2022-09-09T00:26:48;1.98;;;1.98;;
69981;SDS011;57319;56.274;43.980;2022-09-09T00:29:35;2.03;;;1.85;;
69981;SDS011;57319;56.274;43.980;2022-09-09T00:32:13;1.98;;;1.98;;
69981;SDS011;57319;56.274;43.980;2022-09-09T00:34:46;1.73;;;1.73;;
69981;SDS011;57319;56.274;43.980;2022-09-09T00:37:25;1.73;;;1.73;;
69981;SDS011;57319;56.274;43.980;2022-09-09T00:39:53;6.80;;;1.80;;
69981;SDS011;57319;56.274;43.980;2022-09-09T00:42:26;1.77;;;1.77;;
69981;SDS011;57319;56.274;43.980;2022-09-09T00:47:49;1.90;;;1.90;;
69981;SDS011;57319;56.274;43.980;2022-09-09T00:56:25;2.85;;;2.10;;
69981;SDS011;57319;56.274;43.980;2022-09-09T00:59:01;2.17;;;2.08;;
69981;SDS011;57319;56.274;43.980;2022-09-09T01:01:41;2.40;;;2.20;;
69981;SDS011;57319;56.274;43.980;2022-09-09T01:04:14;3.97;;;2.10;;
69981;SDS011;57319;56.274;43.980;2022-09-09T01:06:45;1.90;;;1.80;;
69981;SDS011;57319;56.274;43.980;2022-09-09T01:22:25;3.50;;;2.03;;
69981;SDS011;57319;56.274;43.980;2022-09-09T01:25:15;2.03;;;1.92;;
69981;SDS011;57319;56.274;43.980;2022-09-09T01:28:02;1.83;;;1.80;;
69981;SDS011;57319;56.274;43.980;2022-09-09T01:30:37;3.63;;;2.13;;
69981;SDS011;57319;56.274;43.980;2022-09-09T01:33:04;2.17;;;2.08;;
69981;SDS011;57319;56.274;43.980;2022-09-09T01:36:13;6.97;;;1.67;;
69981;SDS011;57319;56.274;43.980;2022-09-09T01:38:25;2.00;;;1.90;;
69981;SDS011;57319;56.274;43.980;2022-09-09T01:40:53;3.55;;;1.88;;
69981;SDS011;57319;56.274;43.980;2022-09-09T01:43:22;2.33;;;2.20;;
69981;SDS011;57319;56.274;43.980;2022-09-09T01:45:49;2.50;;;2.30;;
69981;SDS011;57319;56.274;43.980;2022-09-09T01:48:18;3.22;;;2.08;;
69981;SDS011;57319;56.274;43.980;2022-09-09T01:50:44;1.90;;;1.90;;
69981;SDS011;57319;56.274;43.980;2022-09-09T01:53:10;1.80;;;1.75;;
69981;SDS011;57319;56.274;43.980;2022-09-09T01:55:38;5.97;;;2.20;;
69981;SDS011;57319;56.274;43.980;2022-09-09T01:58:24;2.08;;;2.05;;
69981;SDS011;57319;56.274;43.980;2022-09-09T02:00:56;1.90;;;1.90;;
69981;SDS011;57319;56.274;43.980;2022-09-09T02:03:27;2.08;;;2.08;;
69981;SDS011;57319;56.274;43.980;2022-09-09T02:08:50;2.22;;;2.00;;
69981;SDS011;57319;56.274;43.980;2022-09-09T02:11:22;2.92;;;2.10;;
69981;SDS011;57319;56.274;43.980;2022-09-09T02:13:51;2.00;;;2.00;;
69981;SDS011;57319;56.274;43.980;2022-09-09T02:19:03;5.57;;;2.00;;
69981;SDS011;57319;56.274;43.980;2022-09-09T02:21:37;3.22;;;2.10;;
69981;SDS011;57319;56.274;43.980;2022-09-09T02:24:05;1.95;;;1.95;;
69981;SDS011;57319;56.274;43.980;2022-09-09T02:26:35;4.30;;;1.80;;
69981;SDS011;57319;56.274;43.980;2022-09-09T02:29:06;2.13;;;2.03;;
69981;SDS011;57319;56.274;43.980;2022-09-09T02:31:37;2.10;;;2.10;;
69981;SDS011;57319;56.274;43.980;2022-09-09T02:34:05;1.80;;;1.80;;
69981;SDS011;57319;56.274;43.980;2022-09-09T02:36:34;2.70;;;2.30;;
69981;SDS011;57319;56.274;43.980;2022-09-09T02:39:02;2.05;;;2.05;;
69981;SDS011;57319;56.274;43.980;2022-09-09T02:41:31;1.85;;;1.75;;
69981;SDS011;57319;56.274;43.980;2022-09-09T02:43:59;1.77;;;1.77;;
69981;SDS011;57319;56.274;43.980;2022-09-09T02:52:03;1.70;;;1.70;;
69981;SDS011;57319;56.274;43.980;2022-09-09T02:54:35;2.13;;;2.05;;
69981;SDS011;57319;56.274;43.980;2022-09-09T02:57:37;4.15;;;2.20;;
69981;SDS011;57319;56.274;43.980;2022-09-09T02:59:57;2.00;;;1.90;;
69981;SDS011;57319;56.274;43.980;2022-09-09T03:02:24;1.90;;;1.80;;
69981;SDS011;57319;56.274;43.980;2022-09-09T03:04:50;1.80;;;1.80;;
69981;SDS011;57319;56.274;43.980;2022-09-09T03:07:20;1.55;;;1.55;;
69981;SDS011;57319;56.274;43.980;2022-09-09T03:09:46;1.98;;;1.98;;
69981;SDS011;57319;56.274;43.980;2022-09-09T03:12:15;2.20;;;2.10;;
69981;SDS011;57319;56.274;43.980;2022-09-09T03:14:41;1.70;;;1.60;;
69981;SDS011;57319;56.274;43.980;2022-09-09T03:17:08;2.35;;;2.15;;
69981;SDS011;57319;56.274;43.980;2022-09-09T03:19:34;2.10;;;2.00;;
69981;SDS011;57319;56.274;43.980;2022-09-09T03:22:01;2.08;;;1.98;;
69981;SDS011;57319;56.274;43.980;2022-09-09T03:24:26;1.70;;;1.70;;
69981;SDS011;57319;56.274;43.980;2022-09-09T03:26:52;2.03;;;1.92;;
69981;SDS011;57319;56.274;43.980;2022-09-09T03:29:18;2.78;;;1.85;;
69981;SDS011;57319;56.274;43.980;2022-09-09T03:31:43;2.00;;;2.00;;
69981;SDS011;57319;56.274;43.980;2022-09-09T03:34:10;1.88;;;1.88;;
69981;SDS011;57319;56.274;43.980;2022-09-09T03:36:36;4.88;;;1.98;;
69981;SDS011;57319;56.274;43.980;2022-09-09T03:39:02;1.55;;;1.55;;
69981;SDS011;57319;56.274;43.980;2022-09-09T03:41:28;1.88;;;1.80;;
69981;SDS011;57319;56.274;43.980;2022-09-09T03:43:55;1.70;;;1.70;;
69981;SDS011;57319;56.274;43.980;2022-09-09T03:46:22;1.60;;;1.60;;
69981;SDS011;57319;56.274;43.980;2022-09-09T03:48:50;2.30;;;2.10;;
69981;SDS011;57319;56.274;43.980;2022-09-09T03:51:17;3.83;;;2.13;;
69981;SDS011;57319;56.274;43.980;2022-09-09T03:53:43;14.60;;;1.83;;
69981;SDS011;57319;56.274;43.980;2022-09-09T03:56:09;2.28;;;1.60;;
69981;SDS011;57319;56.274;43.980;2022-09-09T03:58:35;1.48;;;1.48;;
69981;SDS011;57319;56.274;43.980;2022-09-09T04:01:04;2.25;;;2.10;;
69981;SDS011;57319;56.274;43.980;2022-09-09T04:03:31;1.65;;;1.52;;
69981;SDS011;57319;56.274;43.980;2022-09-09T04:05:58;1.90;;;1.80;;
69981;SDS011;57319;56.274;43.980;2022-09-09T04:08:25;4.45;;;1.63;;
69981;SDS011;57319;56.274;43.980;2022-09-09T04:10:51;6.10;;;1.95;;
69981;SDS011;57319;56.274;43.980;2022-09-09T04:13:18;5.78;;;1.88;;
69981;SDS011;57319;56.274;43.980;2022-09-09T04:15:54;1.90;;;1.73;;
69981;SDS011;57319;56.274;43.980;2022-09-09T04:18:21;1.70;;;1.60;;
69981;SDS011;57319;56.274;43.980;2022-09-09T04:20:48;1.60;;;1.50;;
69981;SDS011;57319;56.274;43.980;2022-09-09T04:23:15;6.68;;;1.77;;
69981;SDS011;57319;56.274;43.980;2022-09-09T04:25:48;2.22;;;1.70;;
69981;SDS011;57319;56.274;43.980;2022-09-09T04:28:15;1.20;;;1.20;;
69981;SDS011;57319;56.274;43.980;2022-09-09T04:30:42;1.50;;;1.50;;
69981;SDS011;57319;56.274;43.980;2022-09-09T04:33:09;1.58;;;1.58;;
69981;SDS011;57319;56.274;43.980;2022-09-09T04:35:35;1.45;;;1.42;;
69981;SDS011;57319;56.274;43.980;2022-09-09T04:38:02;4.60;;;1.92;;
69981;SDS011;57319;56.274;43.980;2022-09-09T04:40:28;1.85;;;1.20;;
69981;SDS011;57319;56.274;43.980;2022-09-09T04:42:55;3.42;;;1.30;;
69981;SDS011;57319;56.274;43.980;2022-09-09T04:45:23;3.63;;;2.78;;
69981;SDS011;57319;56.274;43.980;2022-09-09T04:47:48;1.38;;;1.33;;
69981;SDS011;57319;56.274;43.980;2022-09-09T04:50:14;1.10;;;1.10;;
69981;SDS011;57319;56.274;43.980;2022-09-09T04:52:41;1.02;;;1.02;;
69981;SDS011;57319;56.274;43.980;2022-09-09T04:55:06;3.80;;;1.30;;
69981;SDS011;57319;56.274;43.980;2022-09-09T04:57:34;3.25;;;1.30;;
69981;SDS011;57319;56.274;43.980;2022-09-09T04:59:59;0.90;;;0.90;;
69981;SDS011;57319;56.274;43.980;2022-09-09T05:02:25;6.85;;;1.27;;
69981;SDS011;57319;56.274;43.980;2022-09-09T05:04:51;5.68;;;1.40;;
69981;SDS011;57319;56.274;43.980;2022-09-09T05:07:17;2.05;;;1.10;;
69981;SDS011;57319;56.274;43.980;2022-09-09T05:09:42;6.28;;;1.48;;
69981;SDS011;57319;56.274;43.980;2022-09-09T05:12:08;1.05;;;1.05;;
69981;SDS011;57319;56.274;43.980;2022-09-09T05:14:34;0.90;;;0.90;;
69981;SDS011;57319;56.274;43.980;2022-09-09T05:17:02;1.00;;;1.00;;
69981;SDS011;57319;56.274;43.980;2022-09-09T05:19:28;1.10;;;1.10;;
69981;SDS011;57319;56.274;43.980;2022-09-09T05:21:56;2.90;;;1.23;;
69981;SDS011;57319;56.274;43.980;2022-09-09T05:24:22;2.13;;;0.88;;
69981;SDS011;57319;56.274;43.980;2022-09-09T05:26:48;1.05;;;1.02;;
69981;SDS011;57319;56.274;43.980;2022-09-09T05:29:14;3.08;;;1.30;;
69981;SDS011;57319;56.274;43.980;2022-09-09T05:31:45;1.55;;;0.93;;
69981;SDS011;57319;56.274;43.980;2022-09-09T05:34:12;0.70;;;0.70;;
69981;SDS011;57319;56.274;43.980;2022-09-09T05:36:37;0.70;;;0.70;;
69981;SDS011;57319;56.274;43.980;2022-09-09T05:39:03;0.88;;;0.88;;
69981;SDS011;57319;56.274;43.980;2022-09-09T05:41:29;1.75;;;0.77;;
69981;SDS011;57319;56.274;43.980;2022-09-09T05:43:56;3.10;;;0.95;;
69981;SDS011;57319;56.274;43.980;2022-09-09T05:46:22;1.10;;;1.10;;
69981;SDS011;57319;56.274;43.980;2022-09-09T05:48:50;0.95;;;0.93;;
69981;SDS011;57319;56.274;43.980;2022-09-09T05:51:24;5.47;;;0.80;;
69981;SDS011;57319;56.274;43.980;2022-09-09T05:53:51;6.43;;;0.80;;
69981;SDS011;57319;56.274;43.980;2022-09-09T05:56:18;0.73;;;0.73;;
69981;SDS011;57319;56.274;43.980;2022-09-09T05:58:50;1.38;;;0.60;;
69981;SDS011;57319;56.274;43.980;2022-09-09T06:01:18;6.40;;;0.90;;
69981;SDS011;57319;56.274;43.980;2022-09-09T06:06:21;1.02;;;0.95;;
69981;SDS011;57319;56.274;43.980;2022-09-09T06:08:51;2.45;;;0.68;;
69981;SDS011;57319;56.274;43.980;2022-09-09T06:11:20;0.70;;;0.70;;
69981;SDS011;57319;56.274;43.980;2022-09-09T06:13:48;3.58;;;0.80;;
69981;SDS011;57319;56.274;43.980;2022-09-09T06:16:19;3.55;;;1.33;;
69981;SDS011;57319;56.274;43.980;2022-09-09T06:18:48;2.10;;;1.00;;
69981;SDS011;57319;56.274;43.980;2022-09-09T06:21:16;0.80;;;0.70;;
69981;SDS011;57319;56.274;43.980;2022-09-09T06:23:55;0.70;;;0.70;;
69981;SDS011;57319;56.274;43.980;2022-09-09T06:26:22;2.72;;;0.98;;
69981;SDS011;57319;56.274;43.980;2022-09-09T06:28:51;7.38;;;0.77;;
69981;SDS011;57319;56.274;43.980;2022-09-09T06:31:18;0.90;;;0.90;;
69981;SDS011;57319;56.274;43.980;2022-09-09T06:33:47;0.65;;;0.52;;
69981;SDS011;57319;56.274;43.980;2022-09-09T06:36:15;3.00;;;0.70;;
69981;SDS011;57319;56.274;43.980;2022-09-09T06:38:43;0.65;;;0.55;;
69981;SDS011;57319;56.274;43.980;2022-09-09T06:41:10;3.92;;;0.70;;
69981;SDS011;57319;56.274;43.980;2022-09-09T06:43:37;10.75;;;1.00;;
69981;SDS011;57319;56.274;43.980;2022-09-09T06:46:13;1.75;;;1.02;;
69981;SDS011;57319;56.274;43.980;2022-09-09T06:48:41;5.10;;;0.90;;
69981;SDS011;57319;56.274;43.980;2022-09-09T06:51:11;3.53;;;0.60;;
69981;SDS011;57319;56.274;43.980;2022-09-09T06:53:42;2.55;;;0.65;;
69981;SDS011;57319;56.274;43.980;2022-09-09T06:58:35;1.52;;;0.63;;
69981;SDS011;57319;56.274;43.980;2022-09-09T07:01:09;12.75;;;1.30;;
69981;SDS011;57319;56.274;43.980;2022-09-09T07:03:40;8.80;;;0.90;;
69981;SDS011;57319;56.274;43.980;2022-09-09T07:06:08;17.05;;;1.20;;
69981;SDS011;57319;56.274;43.980;2022-09-09T07:08:39;1.38;;;0.63;;
69981;SDS011;57319;56.274;43.980;2022-09-09T07:11:05;1.85;;;0.95;;
69981;SDS011;57319;56.274;43.980;2022-09-09T07:13:32;6.53;;;0.60;;
69981;SDS011;57319;56.274;43.980;2022-09-09T07:18:34;1.95;;;0.73;;
69981;SDS011;57319;56.274;43.980;2022-09-09T07:21:01;4.00;;;0.70;;
69981;SDS011;57319;56.274;43.980;2022-09-09T07:23:29;0.60;;;0.60;;
69981;SDS011;57319;56.274;43.980;2022-09-09T07:25:58;2.95;;;0.70;;
69981;SDS011;57319;56.274;43.980;2022-09-09T07:28:24;1.70;;;0.55;;
69981;SDS011;57319;56.274;43.980;2022-09-09T07:30:58;0.85;;;0.68;;
69981;SDS011;57319;56.274;43.980;2022-09-09T07:33:28;0.50;;;0.50;;
69981;SDS011;57319;56.274;43.980;2022-09-09T07:36:02;1.08;;;0.70;;
69981;SDS011;57319;56.274;43.980;2022-09-09T07:38:41;4.85;;;0.63;;
69981;SDS011;57319;56.274;43.980;2022-09-09T07:41:11;10.15;;;1.20;;
69981;SDS011;57319;56.274;43.980;2022-09-09T07:43:43;1.40;;;0.80;;
69981;SDS011;57319;56.274;43.980;2022-09-09T07:46:10;0.50;;;0.50;;
69981;SDS011;57319;56.274;43.980;2022-09-09T07:48:37;2.05;;;0.40;;
69981;SDS011;57319;56.274;43.980;2022-09-09T07:51:11;4.15;;;0.73;;
69981;SDS011;57319;56.274;43.980;2022-09-09T07:53:43;1.10;;;0.50;;
69981;SDS011;57319;56.274;43.980;2022-09-09T07:56:10;0.60;;;0.60;;
69981;SDS011;57319;56.274;43.980;2022-09-09T07:58:39;0.77;;;0.77;;
69981;SDS011;57319;56.274;43.980;2022-09-09T08:01:06;0.73;;;0.60;;
69981;SDS011;57319;56.274;43.980;2022-09-09T08:03:38;5.75;;;0.45;;
69981;SDS011;57319;56.274;43.980;2022-09-09T08:06:05;5.25;;;0.80;;
69981;SDS011;57319;56.274;43.980;2022-09-09T08:08:33;1.70;;;0.93;;
69981;SDS011;57319;56.274;43.980;2022-09-09T08:13:33;19.58;;;1.60;;
69981;SDS011;57319;56.274;43.980;2022-09-09T08:16:06;0.93;;;0.60;;
69981;SDS011;57319;56.274;43.980;2022-09-09T08:18:35;2.03;;;0.52;;
69981;SDS011;57319;56.274;43.980;2022-09-09T08:21:08;0.60;;;0.60;;
69981;SDS011;57319;56.274;43.980;2022-09-09T08:23:37;1.00;;;0.52;;
69981;SDS011;57319;56.274;43.980;2022-09-09T08:26:11;10.68;;;0.70;;
69981;SDS011;57319;56.274;43.980;2022-09-09T08:28:39;0.60;;;0.60;;
69981;SDS011;57319;56.274;43.980;2022-09-09T08:31:15;1.40;;;0.38;;
69981;SDS011;57319;56.274;43.980;2022-09-09T08:33:43;10.73;;;0.82;;
69981;SDS011;57319;56.274;43.980;2022-09-09T08:36:12;3.15;;;0.55;;
69981;SDS011;57319;56.274;43.980;2022-09-09T08:38:43;4.10;;;0.50;;
69981;SDS011;57319;56.274;43.980;2022-09-09T08:44:04;1.92;;;0.30;;
69981;SDS011;57319;56.274;43.980;2022-09-09T08:46:43;0.63;;;0.63;;
69981;SDS011;57319;56.274;43.980;2022-09-09T08:51:56;1.80;;;0.40;;
69981;SDS011;57319;56.274;43.980;2022-09-09T08:54:23;20.35;;;1.33;;
69981;SDS011;57319;56.274;43.980;2022-09-09T08:56:51;0.90;;;0.88;;
69981;SDS011;57319;56.274;43.980;2022-09-09T08:59:17;0.77;;;0.50;;
69981;SDS011;57319;56.274;43.980;2022-09-09T09:12:55;0.50;;;0.50;;
69981;SDS011;57319;56.274;43.980;2022-09-09T09:15:26;4.63;;;0.60;;
69981;SDS011;57319;56.274;43.980;2022-09-09T09:17:56;1.00;;;0.63;;
69981;SDS011;57319;56.274;43.980;2022-09-09T09:20:32;1.65;;;0.60;;
69981;SDS011;57319;56.274;43.980;2022-09-09T09:23:22;0.63;;;0.63;;
69981;SDS011;57319;56.274;43.980;2022-09-09T09:25:50;0.50;;;0.50;;
69981;SDS011;57319;56.274;43.980;2022-09-09T09:28:27;1.98;;;0.40;;
69981;SDS011;57319;56.274;43.980;2022-09-09T09:31:01;2.35;;;0.50;;
69981;SDS011;57319;56.274;43.980;2022-09-09T09:36:11;5.57;;;0.30;;
69981;SDS011;57319;56.274;43.980;2022-09-09T09:38:50;2.85;;;0.70;;
69981;SDS011;57319;56.274;43.980;2022-09-09T09:41:28;1.98;;;0.70;;
69981;SDS011;57319;56.274;43.980;2022-09-09T09:43:59;1.55;;;0.77;;
69981;SDS011;57319;56.274;43.980;2022-09-09T09:46:27;2.50;;;1.15;;
69981;SDS011;57319;56.274;43.980;2022-09-09T09:48:56;7.15;;;0.80;;
69981;SDS011;57319;56.274;43.980;2022-09-09T09:51:23;1.80;;;0.70;;
69981;SDS011;57319;56.274;43.980;2022-09-09T09:53:50;3.03;;;0.70;;
69981;SDS011;57319;56.274;43.980;2022-09-09T09:56:25;0.65;;;0.40;;
69981;SDS011;57319;56.274;43.980;2022-09-09T09:58:56;0.80;;;0.52;;
69981;SDS011;57319;56.274;43.980;2022-09-09T10:04:02;4.65;;;0.95;;
69981;SDS011;57319;56.274;43.980;2022-09-09T10:06:41;0.52;;;0.52;;
69981;SDS011;57319;56.274;43.980;2022-09-09T10:12:02;4.57;;;0.40;;
69981;SDS011;57319;56.274;43.980;2022-09-09T10:20:32;0.45;;;0.40;;
69981;SDS011;57319;56.274;43.980;2022-09-09T10:28:42;0.77;;;0.77;;
69981;SDS011;57319;56.274;43.980;2022-09-09T10:37:04;0.60;;;0.60;;
69981;SDS011;57319;56.274;43.980;2022-09-09T10:39:40;0.75;;;0.40;;
69981;SDS011;57319;56.274;43.980;2022-09-09T10:42:07;0.22;;;0.22;;
69981;SDS011;57319;56.274;43.980;2022-09-09T10:47:33;0.30;;;0.30;;
69981;SDS011;57319;56.274;43.980;2022-09-09T10:52:42;4.10;;;0.65;;
69981;SDS011;57319;56.274;43.980;2022-09-09T10:55:33;0.63;;;0.37;;
69981;SDS011;57319;56.274;43.980;2022-09-09T10:58:09;0.52;;;0.40;;
69981;SDS011;57319;56.274;43.980;2022-09-09T11:00:47;0.70;;;0.43;;
69981;SDS011;57319;56.274;43.980;2022-09-09T11:05:53;4.05;;;0.30;;
69981;SDS011;57319;56.274;43.980;2022-09-09T11:08:24;0.22;;;0.22;;
69981;SDS011;57319;56.274;43.980;2022-09-09T11:10:55;0.90;;;0.60;;
69981;SDS011;57319;56.274;43.980;2022-09-09T11:13:35;0.30;;;0.30;;
69981;SDS011;57319;56.274;43.980;2022-09-09T11:16:11;2.20;;;0.60;;
69981;SDS011;57319;56.274;43.980;2022-09-09T11:19:02;10.48;;;0.63;;
69981;SDS011;57319;56.274;43.980;2022-09-09T11:21:36;0.17;;;0.17;;
69981;SDS011;57319;56.274;43.980;2022-09-09T11:24:10;0.40;;;0.40;;
69981;SDS011;57319;56.274;43.980;2022-09-09T11:27:18;0.55;;;0.43;;
69981;SDS011;57319;56.274;43.980;2022-09-09T11:32:54;0.30;;;0.30;;
69981;SDS011;57319;56.274;43.980;2022-09-09T11:38:44;3.53;;;0.32;;
69981;SDS011;57319;56.274;43.980;2022-09-09T11:41:16;11.50;;;0.82;;
69981;SDS011;57319;56.274;43.980;2022-09-09T11:46:13;6.40;;;0.60;;
69981;SDS011;57319;56.274;43.980;2022-09-09T11:48:43;0.28;;;0.25;;
69981;SDS011;57319;56.274;43.980;2022-09-09T11:51:25;2.42;;;0.50;;
69981;SDS011;57319;56.274;43.980;2022-09-09T11:53:54;0.50;;;0.47;;
69981;SDS011;57319;56.274;43.980;2022-09-09T11:56:27;2.05;;;0.50;;
69981;SDS011;57319;56.274;43.980;2022-09-09T11:58:57;1.08;;;0.55;;
69981;SDS011;57319;56.274;43.980;2022-09-09T12:01:44;0.93;;;0.50;;
69981;SDS011;57319;56.274;43.980;2022-09-09T12:04:35;0.57;;;0.57;;
69981;SDS011;57319;56.274;43.980;2022-09-09T12:07:37;2.28;;;0.45;;
69981;SDS011;57319;56.274;43.980;2022-09-09T12:13:20;0.40;;;0.38;;
69981;SDS011;57319;56.274;43.980;2022-09-09T12:15:54;1.52;;;0.50;;
69981;SDS011;57319;56.274;43.980;2022-09-09T12:18:43;0.65;;;0.65;;
69981;SDS011;57319;56.274;43.980;2022-09-09T12:28:24;0.40;;;0.40;;
69981;SDS011;57319;56.274;43.980;2022-09-09T12:34:11;0.38;;;0.32;;
69981;SDS011;57319;56.274;43.980;2022-09-09T12:36:49;3.80;;;0.50;;
69981;SDS011;57319;56.274;43.980;2022-09-09T12:42:33;0.25;;;0.25;;
69981;SDS011;57319;56.274;43.980;2022-09-09T12:45:33;0.43;;;0.30;;
69981;SDS011;57319;56.274;43.980;2022-09-09T12:48:09;9.32;;;0.80;;
69981;SDS011;57319;56.274;43.980;2022-09-09T12:50:50;0.50;;;0.50;;
69981;SDS011;57319;56.274;43.980;2022-09-09T12:53:36;10.13;;;0.52;;
69981;SDS011;57319;56.274;43.980;2022-09-09T12:56:07;1.77;;;0.65;;
69981;SDS011;57319;56.274;43.980;2022-09-09T12:58:45;1.08;;;0.50;;
69981;SDS011;57319;56.274;43.980;2022-09-09T13:01:26;4.57;;;0.38;;
69981;SDS011;57319;56.274;43.980;2022-09-09T13:04:20;2.65;;;0.60;;
69981;SDS011;57319;56.274;43.980;2022-09-09T13:07:05;9.70;;;0.75;;
69981;SDS011;57319;56.274;43.980;2022-09-09T13:09:45;3.65;;;0.55;;
69981;SDS011;57319;56.274;43.980;2022-09-09T13:12:21;1.52;;;0.80;;
69981;SDS011;57319;56.274;43.980;2022-09-09T13:14:51;7.03;;;0.80;;
69981;SDS011;57319;56.274;43.980;2022-09-09T13:17:26;1.58;;;0.80;;
69981;SDS011;57319;56.274;43.980;2022-09-09T13:20:02;4.05;;;0.80;;
69981;SDS011;57319;56.274;43.980;2022-09-09T13:22:52;1.05;;;1.05;;
69981;SDS011;57319;56.274;43.980;2022-09-09T13:25:38;7.50;;;1.05;;
69981;SDS011;57319;56.274;43.980;2022-09-09T13:28:29;1.98;;;0.70;;
69981;SDS011;57319;56.274;43.980;2022-09-09T13:31:05;5.47;;;1.15;;
69981;SDS011;57319;56.274;43.980;2022-09-09T13:33:45;1.33;;;1.20;;
69981;SDS011;57319;56.274;43.980;2022-09-09T13:36:13;7.65;;;0.82;;
69981;SDS011;57319;56.274;43.980;2022-09-09T13:41:19;11.15;;;1.33;;
69981;SDS011;57319;56.274;43.980;2022-09-09T13:43:48;2.08;;;0.80;;
69981;SDS011;57319;56.274;43.980;2022-09-09T13:52:01;0.88;;;0.77;;
69981;SDS011;57319;56.274;43.980;2022-09-09T13:54:40;1.67;;;0.60;;
69981;SDS011;57319;56.274;43.980;2022-09-09T13:57:26;0.50;;;0.40;;
69981;SDS011;57319;56.274;43.980;2022-09-09T13:59:53;0.90;;;0.30;;
69981;SDS011;57319;56.274;43.980;2022-09-09T14:02:20;0.50;;;0.50;;
69981;SDS011;57319;56.274;43.980;2022-09-09T14:04:49;7.63;;;0.90;;
69981;SDS011;57319;56.274;43.980;2022-09-09T14:07:35;2.92;;;1.33;;
69981;SDS011;57319;56.274;43.980;2022-09-09T14:10:13;12.27;;;1.10;;
69981;SDS011;57319;56.274;43.980;2022-09-09T14:13:08;0.45;;;0.45;;
69981;SDS011;57319;56.274;43.980;2022-09-09T14:15:53;4.05;;;0.60;;
69981;SDS011;57319;56.274;43.980;2022-09-09T14:18:21;7.97;;;1.17;;
69981;SDS011;57319;56.274;43.980;2022-09-09T14:20:48;6.03;;;1.13;;
69981;SDS011;57319;56.274;43.980;2022-09-09T14:23:15;4.80;;;1.00;;
69981;SDS011;57319;56.274;43.980;2022-09-09T14:25:44;0.60;;;0.60;;
69981;SDS011;57319;56.274;43.980;2022-09-09T14:28:10;4.03;;;0.60;;
69981;SDS011;57319;56.274;43.980;2022-09-09T14:30:38;0.65;;;0.60;;
69981;SDS011;57319;56.274;43.980;2022-09-09T14:33:05;3.00;;;1.17;;
69981;SDS011;57319;56.274;43.980;2022-09-09T14:35:31;1.15;;;0.70;;
69981;SDS011;57319;56.274;43.980;2022-09-09T14:37:58;6.82;;;0.80;;
69981;SDS011;57319;56.274;43.980;2022-09-09T14:40:26;1.58;;;0.70;;
69981;SDS011;57319;56.274;43.980;2022-09-09T14:42:52;6.25;;;1.00;;
69981;SDS011;57319;56.274;43.980;2022-09-09T14:45:18;8.85;;;1.13;;
69981;SDS011;57319;56.274;43.980;2022-09-09T14:47:44;5.57;;;0.88;;
69981;SDS011;57319;56.274;43.980;2022-09-09T14:50:10;3.65;;;0.63;;
69981;SDS011;57319;56.274;43.980;2022-09-09T14:52:37;1.55;;;0.93;;
69981;SDS011;57319;56.274;43.980;2022-09-09T14:55:04;0.55;;;0.55;;
69981;SDS011;57319;56.274;43.980;2022-09-09T14:57:30;2.85;;;0.65;;
69981;SDS011;57319;56.274;43.980;2022-09-09T14:59:56;0.57;;;0.52;;
69981;SDS011;57319;56.274;43.980;2022-09-09T15:02:22;2.28;;;1.00;;
69981;SDS011;57319;56.274;43.980;2022-09-09T15:04:47;9.45;;;0.98;;
69981;SDS011;57319;56.274;43.980;2022-09-09T15:07:15;0.47;;;0.47;;
69981;SDS011;57319;56.274;43.980;2022-09-09T15:09:42;16.50;;;0.90;;
69981;SDS011;57319;56.274;43.980;2022-09-09T15:12:07;1.85;;;0.60;;
69981;SDS011;57319;56.274;43.980;2022-09-09T15:14:33;0.57;;;0.55;;
69981;SDS011;57319;56.274;43.980;2022-09-09T15:17:00;2.03;;;0.73;;
69981;SDS011;57319;56.274;43.980;2022-09-09T15:19:26;1.95;;;0.80;;
69981;SDS011;57319;56.274;43.980;2022-09-09T15:21:51;0.90;;;0.70;;
69981;SDS011;57319;56.274;43.980;2022-09-09T15:24:17;3.95;;;0.73;;
69981;SDS011;57319;56.274;43.980;2022-09-09T15:26:43;2.75;;;0.60;;
69981;SDS011;57319;56.274;43.980;2022-09-09T15:29:09;4.97;;;0.88;;
69981;SDS011;57319;56.274;43.980;2022-09-09T15:31:34;1.45;;;0.90;;
69981;SDS011;57319;56.274;43.980;2022-09-09T15:34:01;3.90;;;0.80;;
69981;SDS011;57319;56.274;43.980;2022-09-09T15:36:32;9.25;;;1.00;;
69981;SDS011;57319;56.274;43.980;2022-09-09T15:41:32;4.57;;;0.77;;
69981;SDS011;57319;56.274;43.980;2022-09-09T15:43:58;0.80;;;0.80;;
69981;SDS011;57319;56.274;43.980;2022-09-09T15:46:26;2.75;;;0.95;;
69981;SDS011;57319;56.274;43.980;2022-09-09T15:51:34;2.67;;;0.85;;
69981;SDS011;57319;56.274;43.980;2022-09-09T15:54:00;1.05;;;0.82;;
69981;SDS011;57319;56.274;43.980;2022-09-09T15:56:26;6.07;;;0.95;;
69981;SDS011;57319;56.274;43.980;2022-09-09T15:58:54;1.38;;;0.88;;
69981;SDS011;57319;56.274;43.980;2022-09-09T16:01:20;14.02;;;1.10;;
69981;SDS011;57319;56.274;43.980;2022-09-09T16:03:46;3.05;;;0.80;;
69981;SDS011;57319;56.274;43.980;2022-09-09T16:06:13;1.25;;;0.55;;
69981;SDS011;57319;56.274;43.980;2022-09-09T16:08:41;7.22;;;1.23;;
69981;SDS011;57319;56.274;43.980;2022-09-09T16:11:09;1.40;;;0.98;;
69981;SDS011;57319;56.274;43.980;2022-09-09T16:13:45;0.93;;;0.93;;
69981;SDS011;57319;56.274;43.980;2022-09-09T16:16:11;11.60;;;1.73;;
69981;SDS011;57319;56.274;43.980;2022-09-09T16:18:40;6.55;;;1.60;;
69981;SDS011;57319;56.274;43.980;2022-09-09T16:21:08;9.90;;;1.25;;
69981;SDS011;57319;56.274;43.980;2022-09-09T16:23:40;4.90;;;1.40;;
69981;SDS011;57319;56.274;43.980;2022-09-09T16:26:05;3.10;;;1.30;;
69981;SDS011;57319;56.274;43.980;2022-09-09T16:28:31;8.23;;;1.20;;
69981;SDS011;57319;56.274;43.980;2022-09-09T16:30:57;3.25;;;2.08;;
69981;SDS011;57319;56.274;43.980;2022-09-09T16:33:26;3.08;;;1.40;;
69981;SDS011;57319;56.274;43.980;2022-09-09T16:35:52;6.43;;;1.60;;
69981;SDS011;57319;56.274;43.980;2022-09-09T16:38:17;1.65;;;1.20;;
69981;SDS011;57319;56.274;43.980;2022-09-09T16:40:43;18.88;;;1.90;;
69981;SDS011;57319;56.274;43.980;2022-09-09T16:43:09;3.35;;;1.50;;
69981;SDS011;57319;56.274;43.980;2022-09-09T16:45:41;1.70;;;1.60;;
69981;SDS011;57319;56.274;43.980;2022-09-09T16:48:08;5.95;;;1.58;;
69981;SDS011;57319;56.274;43.980;2022-09-09T16:50:34;11.80;;;1.33;;
69981;SDS011;57319;56.274;43.980;2022-09-09T16:52:59;13.85;;;1.50;;
69981;SDS011;57319;56.274;43.980;2022-09-09T16:55:29;17.88;;;2.17;;
69981;SDS011;57319;56.274;43.980;2022-09-09T16:57:55;24.00;;;1.88;;
69981;SDS011;57319;56.274;43.980;2022-09-09T17:00:20;6.10;;;1.58;;
69981;SDS011;57319;56.274;43.980;2022-09-09T17:02:48;5.13;;;1.50;;
69981;SDS011;57319;56.274;43.980;2022-09-09T17:05:14;13.05;;;2.25;;
69981;SDS011;57319;56.274;43.980;2022-09-09T17:07:39;1.70;;;1.50;;
69981;SDS011;57319;56.274;43.980;2022-09-09T17:10:05;1.80;;;1.63;;